createdAt,value
2022-10-18T00:00:48.056Z,5.68
2022-10-18T00:03:14.840Z,5.97
2022-10-18T00:05:41.547Z,6.65
2022-10-18T00:08:08.220Z,6.13
2022-10-18T00:10:34.948Z,5.75
2022-10-18T00:13:01.845Z,5.47
2022-10-18T00:15:28.521Z,6.10
2022-10-18T00:17:55.211Z,6.00
2022-10-18T00:20:22.054Z,5.80
2022-10-18T00:22:48.758Z,5.80
2022-10-18T00:25:15.481Z,5.45
2022-10-18T00:27:42.296Z,5.85
2022-10-18T00:30:09.593Z,5.63
2022-10-18T00:32:38.253Z,5.80
2022-10-18T00:35:06.179Z,5.57
2022-10-18T00:37:34.074Z,6.45
2022-10-18T00:40:01.183Z,6.30
2022-10-18T00:42:34.470Z,5.50
2022-10-18T00:45:18.498Z,5.82
2022-10-18T00:47:48.599Z,5.47
2022-10-18T00:50:15.720Z,6.32
2022-10-18T00:52:52.461Z,5.93
2022-10-18T00:55:19.667Z,5.88
2022-10-18T00:57:47.301Z,5.53
2022-10-18T01:00:14.341Z,5.72
2022-10-18T01:02:43.494Z,5.90
2022-10-18T01:05:12.992Z,6.72
2022-10-18T01:07:45.451Z,6.15
2022-10-18T01:10:37.194Z,5.75
2022-10-18T01:13:30.714Z,6.30
2022-10-18T01:16:03.318Z,6.10
2022-10-18T01:18:29.958Z,6.20
2022-10-18T01:21:17.516Z,5.90
2022-10-18T01:24:07.025Z,5.72
2022-10-18T01:26:48.130Z,5.82
2022-10-18T01:29:41.456Z,6.25
2022-10-18T01:32:28.802Z,5.75
2022-10-18T01:35:03.986Z,6.30
2022-10-18T01:37:32.645Z,5.93
2022-10-18T01:40:03.623Z,5.25
2022-10-18T01:42:31.760Z,6.03
2022-10-18T01:45:00.287Z,6.25
2022-10-18T01:47:28.008Z,5.32
2022-10-18T01:50:04.152Z,6.20
2022-10-18T01:52:31.463Z,6.28
2022-10-18T01:55:00.481Z,5.93
2022-10-18T01:57:37.462Z,5.20
2022-10-18T02:00:16.547Z,5.57
2022-10-18T02:02:43.167Z,5.45
2022-10-18T02:05:19.067Z,5.63
2022-10-18T02:08:00.198Z,6.10
2022-10-18T02:11:05.715Z,5.65
2022-10-18T02:14:03.095Z,5.60
2022-10-18T02:16:40.750Z,5.68
2022-10-18T02:19:39.845Z,5.10
2022-10-18T02:22:08.721Z,5.80
2022-10-18T02:24:38.838Z,5.50
2022-10-18T02:27:05.973Z,5.50
2022-10-18T02:29:33.361Z,6.20
2022-10-18T02:32:26.218Z,5.40
2022-10-18T02:35:03.558Z,5.60
2022-10-18T02:37:36.208Z,6.30
2022-10-18T02:40:05.825Z,5.43
2022-10-18T02:42:37.125Z,5.95
2022-10-18T02:45:05.929Z,6.72
2022-10-18T02:47:33.031Z,6.28
2022-10-18T02:49:59.875Z,5.85
2022-10-18T02:52:26.568Z,5.80
2022-10-18T02:54:53.360Z,5.63
2022-10-18T02:57:20.108Z,6.18
2022-10-18T02:59:47.129Z,5.60
2022-10-18T03:02:13.822Z,6.40
2022-10-18T03:04:40.528Z,5.40
2022-10-18T03:07:07.326Z,6.15
2022-10-18T03:09:33.985Z,6.00
2022-10-18T03:12:00.822Z,5.65
2022-10-18T03:14:27.513Z,6.18
2022-10-18T03:16:54.232Z,6.30
2022-10-18T03:19:20.942Z,6.18
2022-10-18T03:21:47.695Z,6.13
2022-10-18T03:24:14.514Z,5.75
2022-10-18T03:26:41.191Z,5.72
2022-10-18T03:29:11.202Z,6.03
2022-10-18T03:31:38.074Z,6.10
2022-10-18T03:34:04.847Z,6.88
2022-10-18T03:36:31.661Z,6.40
2022-10-18T03:38:58.305Z,6.32
2022-10-18T03:41:25.034Z,6.93
2022-10-18T03:43:51.739Z,6.68
2022-10-18T03:46:18.432Z,6.93
2022-10-18T03:48:45.213Z,6.45
2022-10-18T03:51:11.969Z,7.15
2022-10-18T03:53:38.641Z,6.55
2022-10-18T03:56:05.826Z,6.63
2022-10-18T04:01:06.637Z,6.53
2022-10-18T04:03:33.683Z,6.93
2022-10-18T04:06:00.882Z,6.40
2022-10-18T04:08:27.581Z,7.45
2022-10-18T04:10:54.318Z,7.03
2022-10-18T04:13:44.160Z,7.10
2022-10-18T04:16:11.042Z,6.20
2022-10-18T04:18:37.852Z,7.20
2022-10-18T04:21:04.701Z,7.28
2022-10-18T04:23:33.899Z,8.90
2022-10-18T04:26:03.264Z,8.02
2022-10-18T04:28:35.336Z,9.95
2022-10-18T04:31:02.158Z,8.50
2022-10-18T04:33:28.833Z,10.90
2022-10-18T04:35:55.562Z,9.40
2022-10-18T04:38:22.296Z,8.98
2022-10-18T04:40:50.581Z,9.00
2022-10-18T04:43:17.575Z,10.10
2022-10-18T04:45:48.213Z,11.35
2022-10-18T04:48:15.510Z,11.93
2022-10-18T04:50:42.206Z,11.02
2022-10-18T04:53:09.120Z,10.88
2022-10-18T04:55:36.239Z,12.27
2022-10-18T04:58:03.016Z,10.55
2022-10-18T05:00:30.086Z,10.95
2022-10-18T05:03:00.088Z,11.88
2022-10-18T05:05:43.232Z,11.35
2022-10-18T05:08:14.122Z,11.60
2022-10-18T05:10:41.059Z,12.70
2022-10-18T05:13:07.866Z,13.15
2022-10-18T05:15:34.582Z,13.43
2022-10-18T05:18:01.336Z,11.40
2022-10-18T05:20:28.284Z,12.80
2022-10-18T05:22:54.976Z,12.93
2022-10-18T05:25:21.677Z,12.30
2022-10-18T05:27:48.389Z,12.43
2022-10-18T05:30:15.179Z,13.43
2022-10-18T05:32:41.900Z,12.65
2022-10-18T05:35:08.862Z,11.13
2022-10-18T05:37:36.047Z,12.18
2022-10-18T05:40:02.935Z,11.50
2022-10-18T05:42:30.319Z,11.80
2022-10-18T05:44:57.254Z,12.38
2022-10-18T05:47:24.042Z,12.95
2022-10-18T05:49:50.920Z,13.18
2022-10-18T05:52:17.695Z,12.63
2022-10-18T05:54:44.457Z,12.75
2022-10-18T05:57:11.209Z,12.43
2022-10-18T05:59:38.032Z,12.63
2022-10-18T06:02:04.827Z,11.70
2022-10-18T06:04:31.571Z,12.88
2022-10-18T06:06:58.350Z,14.30
2022-10-18T06:09:26.010Z,12.93
2022-10-18T06:11:52.912Z,13.15
2022-10-18T06:14:19.651Z,13.45
2022-10-18T06:16:46.459Z,14.02
2022-10-18T06:19:19.316Z,14.52
2022-10-18T06:21:49.098Z,13.13
2022-10-18T06:24:18.327Z,14.52
2022-10-18T06:26:45.118Z,16.52
2022-10-18T06:29:12.116Z,17.08
2022-10-18T06:31:38.886Z,16.20
2022-10-18T06:34:05.699Z,16.20
2022-10-18T06:36:32.475Z,16.52
2022-10-18T06:38:59.983Z,15.48
2022-10-18T06:41:26.658Z,15.82
2022-10-18T06:43:58.447Z,16.92
2022-10-18T06:46:25.785Z,19.05
2022-10-18T06:48:52.756Z,19.02
2022-10-18T06:51:20.069Z,17.55
2022-10-18T06:53:59.234Z,17.70
2022-10-18T06:56:34.688Z,16.20
2022-10-18T06:59:01.517Z,17.77
2022-10-18T07:01:28.691Z,19.35
2022-10-18T07:03:56.301Z,20.73
2022-10-18T07:06:24.163Z,18.00
2022-10-18T07:08:54.006Z,18.63
2022-10-18T07:11:26.350Z,17.20
2022-10-18T07:13:55.185Z,17.63
2022-10-18T07:16:22.258Z,18.17
2022-10-18T07:18:50.975Z,18.10
2022-10-18T07:21:20.823Z,18.27
2022-10-18T07:23:48.645Z,19.43
2022-10-18T07:26:20.178Z,19.77
2022-10-18T07:28:49.299Z,19.38
2022-10-18T07:31:16.272Z,18.45
2022-10-18T07:33:43.107Z,22.02
2022-10-18T07:36:11.750Z,21.98
2022-10-18T07:38:38.591Z,20.35
2022-10-18T07:41:07.003Z,20.17
2022-10-18T07:43:34.486Z,20.02
2022-10-18T07:46:03.353Z,19.92
2022-10-18T07:48:30.336Z,21.35
2022-10-18T07:51:01.411Z,20.90
2022-10-18T07:53:31.674Z,20.05
2022-10-18T07:56:01.368Z,21.38
2022-10-18T07:58:32.407Z,21.30
2022-10-18T08:01:06.450Z,21.60
2022-10-18T08:03:33.633Z,21.88
2022-10-18T08:06:00.693Z,23.33
2022-10-18T08:08:28.300Z,22.13
2022-10-18T08:10:55.818Z,24.38
2022-10-18T08:13:22.825Z,25.15
2022-10-18T08:15:49.530Z,26.63
2022-10-18T08:18:16.289Z,24.23
2022-10-18T08:20:45.109Z,26.40
2022-10-18T08:23:12.072Z,24.40
2022-10-18T08:25:40.297Z,24.15
2022-10-18T08:28:11.348Z,25.58
2022-10-18T08:30:45.587Z,27.63
2022-10-18T08:33:16.580Z,27.88
2022-10-18T08:36:07.361Z,26.75
2022-10-18T08:38:39.494Z,28.88
2022-10-18T08:41:49.403Z,27.50
2022-10-18T08:44:32.891Z,27.17
2022-10-18T08:47:08.083Z,27.63
2022-10-18T08:49:58.953Z,28.30
2022-10-18T08:55:39.827Z,29.98
2022-10-18T08:58:32.608Z,33.22
2022-10-18T09:01:37.782Z,32.92
2022-10-18T09:04:26.806Z,37.58
2022-10-18T09:07:24.320Z,38.00
2022-10-18T09:10:15.121Z,36.25
2022-10-18T09:13:08.571Z,39.78
2022-10-18T09:18:48.803Z,37.90
2022-10-18T09:21:50.000Z,36.25
2022-10-18T09:24:34.958Z,38.42
2022-10-18T09:27:20.911Z,38.53
2022-10-18T09:30:15.220Z,39.85
2022-10-18T09:33:27.264Z,38.85
2022-10-18T09:36:22.358Z,36.67
2022-10-18T09:38:58.642Z,35.97
2022-10-18T09:41:41.559Z,34.80
2022-10-18T09:44:26.260Z,35.92
2022-10-18T09:47:06.626Z,37.65
2022-10-18T09:50:16.803Z,36.65
2022-10-18T09:52:54.196Z,37.13
2022-10-18T09:55:35.443Z,34.17
2022-10-18T09:58:09.149Z,34.30
2022-10-18T10:00:52.340Z,38.05
2022-10-18T10:03:24.691Z,37.83
2022-10-18T10:06:18.867Z,36.15
2022-10-18T10:09:00.753Z,34.15
2022-10-18T10:11:38.854Z,32.17
2022-10-18T10:14:28.771Z,33.60
2022-10-18T10:17:34.265Z,33.53
2022-10-18T10:20:39.317Z,33.28
2022-10-18T10:23:39.723Z,37.65
2022-10-18T10:26:40.737Z,35.70
2022-10-18T10:29:51.186Z,33.53
2022-10-18T10:32:21.566Z,33.38
2022-10-18T10:34:49.658Z,31.80
2022-10-18T10:37:28.198Z,34.58
2022-10-18T10:40:20.451Z,31.30
2022-10-18T10:43:36.597Z,31.75
2022-10-18T10:46:16.362Z,31.33
2022-10-18T10:49:04.197Z,31.98
2022-10-18T10:51:41.496Z,29.35
2022-10-18T10:54:25.177Z,29.48
2022-10-18T10:57:13.024Z,30.63
2022-10-18T10:59:50.227Z,31.25
2022-10-18T11:02:28.125Z,30.55
2022-10-18T11:04:59.705Z,30.55
2022-10-18T11:07:42.506Z,29.60
2022-10-18T11:10:24.182Z,29.55
2022-10-18T11:13:35.628Z,31.17
2022-10-18T11:16:49.966Z,30.83
2022-10-18T11:20:02.976Z,32.05
2022-10-18T11:22:39.006Z,28.20
2022-10-18T11:28:17.412Z,27.92
2022-10-18T11:31:13.988Z,27.67
2022-10-18T11:34:34.645Z,27.77
2022-10-18T11:37:29.157Z,25.70
2022-10-18T11:41:13.448Z,25.13
2022-10-18T11:44:09.623Z,22.27
2022-10-18T11:47:22.422Z,25.98
2022-10-18T11:50:29.550Z,25.13
2022-10-18T11:53:26.623Z,24.77
2022-10-18T11:56:49.804Z,24.38
2022-10-18T12:00:01.643Z,20.60
2022-10-18T12:03:21.582Z,17.38
2022-10-18T12:05:52.820Z,17.90
2022-10-18T12:08:53.480Z,18.15
2022-10-18T12:11:32.605Z,17.92
2022-10-18T12:14:33.295Z,16.85
2022-10-18T12:17:41.804Z,15.60
2022-10-18T12:20:03.497Z,16.45
2022-10-18T12:23:01.167Z,15.20
2022-10-18T12:25:39.036Z,13.32
2022-10-18T12:28:18.671Z,12.27
2022-10-18T12:31:15.967Z,11.05
2022-10-18T12:33:55.161Z,12.77
2022-10-18T12:36:31.055Z,12.50
2022-10-18T12:39:10.808Z,13.10
2022-10-18T12:41:49.395Z,12.55
2022-10-18T12:44:25.989Z,12.90
2022-10-18T12:47:00.945Z,12.27
2022-10-18T12:49:59.304Z,12.23
2022-10-18T12:53:01.580Z,12.68
2022-10-18T12:55:41.054Z,9.90
2022-10-18T12:58:23.996Z,8.50
2022-10-18T13:04:01.989Z,7.97
2022-10-18T13:07:09.968Z,8.18
2022-10-18T13:10:19.711Z,9.13
2022-10-18T13:13:38.294Z,7.82
2022-10-18T13:16:37.070Z,9.07
2022-10-18T13:19:34.819Z,8.35
2022-10-18T13:22:41.024Z,7.57
2022-10-18T13:25:36.407Z,7.35
2022-10-18T13:28:25.875Z,7.47
2022-10-18T13:31:19.063Z,7.03
2022-10-18T13:33:51.123Z,7.05
2022-10-18T13:36:22.922Z,7.30
2022-10-18T13:39:09.502Z,7.25
2022-10-18T13:42:02.662Z,7.30
2022-10-18T13:44:51.874Z,7.10
2022-10-18T13:47:41.116Z,6.70
2022-10-18T13:50:41.065Z,7.40
2022-10-18T13:53:23.907Z,8.75
2022-10-18T13:56:16.938Z,8.82
2022-10-18T13:59:27.655Z,8.10
2022-10-18T14:02:50.651Z,7.20
2022-10-18T14:05:26.061Z,6.50
2022-10-18T14:08:46.801Z,7.22
2022-10-18T14:11:47.548Z,6.10
2022-10-18T14:15:09.863Z,6.18
2022-10-18T14:18:00.974Z,6.40
2022-10-18T14:21:01.439Z,6.05
2022-10-18T14:23:40.902Z,6.47
2022-10-18T14:29:19.607Z,6.53
2022-10-18T14:31:57.645Z,6.55
2022-10-18T14:34:25.934Z,8.38
2022-10-18T14:36:56.800Z,6.85
2022-10-18T14:39:40.816Z,5.80
2022-10-18T14:45:06.597Z,6.57
2022-10-18T14:47:47.455Z,6.25
2022-10-18T14:50:30.356Z,5.85
2022-10-18T14:52:58.829Z,5.60
2022-10-18T14:55:34.848Z,6.10
2022-10-18T14:58:07.631Z,6.40
2022-10-18T15:01:01.511Z,7.05
2022-10-18T15:03:40.887Z,5.97
2022-10-18T15:06:19.431Z,6.13
2022-10-18T15:08:57.637Z,6.15
2022-10-18T15:11:26.722Z,6.35
2022-10-18T15:17:00.399Z,7.40
2022-10-18T15:19:41.646Z,6.05
2022-10-18T15:25:30.857Z,5.68
2022-10-18T15:28:29.116Z,5.68
2022-10-18T15:31:01.192Z,5.93
2022-10-18T15:33:34.993Z,5.65
2022-10-18T15:36:10.470Z,6.25
2022-10-18T15:38:41.262Z,5.75
2022-10-18T15:41:56.475Z,5.97
2022-10-18T15:44:48.828Z,7.70
2022-10-18T15:47:23.132Z,6.75
2022-10-18T15:50:00.737Z,6.07
2022-10-18T15:52:42.151Z,6.45
2022-10-18T15:55:31.493Z,6.40
2022-10-18T15:58:33.970Z,6.40
2022-10-18T16:01:06.019Z,6.57
2022-10-18T16:06:20.673Z,6.25
2022-10-18T16:08:52.800Z,6.40
2022-10-18T16:11:26.371Z,6.90
2022-10-18T16:14:02.834Z,7.25
2022-10-18T16:16:40.060Z,7.95
2022-10-18T16:19:11.156Z,6.93
2022-10-18T16:21:39.618Z,6.80
2022-10-18T16:24:09.714Z,6.97
2022-10-18T16:26:41.404Z,6.07
2022-10-18T16:29:16.823Z,6.75
2022-10-18T16:31:50.328Z,6.78
2022-10-18T16:34:19.636Z,7.10
2022-10-18T16:36:47.065Z,8.60
2022-10-18T16:39:21.234Z,9.75
2022-10-18T16:41:57.974Z,7.60
2022-10-18T16:44:32.014Z,6.90
2022-10-18T16:46:59.101Z,7.05
2022-10-18T16:49:30.310Z,6.53
2022-10-18T16:52:02.397Z,6.68
2022-10-18T16:54:39.269Z,6.75
2022-10-18T16:57:06.745Z,7.55
2022-10-18T16:59:33.697Z,11.95
2022-10-18T17:02:09.079Z,9.85
2022-10-18T17:04:37.164Z,8.60
2022-10-18T17:07:06.090Z,8.65
2022-10-18T17:09:39.601Z,7.07
2022-10-18T17:12:09.510Z,7.28
2022-10-18T17:14:37.485Z,7.35
2022-10-18T17:17:13.729Z,6.80
2022-10-18T17:19:47.696Z,6.90
2022-10-18T17:22:14.538Z,6.73
2022-10-18T17:24:43.148Z,6.90
2022-10-18T17:27:13.597Z,7.07
2022-10-18T17:29:52.231Z,7.50
2022-10-18T17:32:22.592Z,7.57
2022-10-18T17:34:52.093Z,7.70
2022-10-18T17:37:23.337Z,7.53
2022-10-18T17:39:55.803Z,9.25
2022-10-18T17:42:23.862Z,9.98
2022-10-18T17:44:54.268Z,8.73
2022-10-18T17:47:25.971Z,8.65
2022-10-18T17:49:53.846Z,7.78
2022-10-18T17:52:24.925Z,7.93
2022-10-18T17:54:53.740Z,7.53
2022-10-18T17:57:21.664Z,8.48
2022-10-18T17:59:50.026Z,8.77
2022-10-18T18:02:25.397Z,10.00
2022-10-18T18:04:58.529Z,9.45
2022-10-18T18:07:28.012Z,8.45
2022-10-18T18:09:57.302Z,9.02
2022-10-18T18:12:37.409Z,8.90
2022-10-18T18:15:09.957Z,7.50
2022-10-18T18:17:56.629Z,7.93
2022-10-18T18:20:28.177Z,7.57
2022-10-18T18:23:00.473Z,8.07
2022-10-18T18:25:30.084Z,8.07
2022-10-18T18:28:05.169Z,7.70
2022-10-18T18:30:49.783Z,9.05
2022-10-18T18:33:22.543Z,7.43
2022-10-18T18:36:01.458Z,7.72
2022-10-18T18:38:29.301Z,9.40
2022-10-18T18:41:07.232Z,15.38
2022-10-18T18:43:38.371Z,13.93
2022-10-18T18:46:16.503Z,10.93
2022-10-18T18:48:56.591Z,9.38
2022-10-18T18:51:33.230Z,8.50
2022-10-18T18:54:06.519Z,17.85
2022-10-18T18:56:33.698Z,11.60
2022-10-18T18:59:05.546Z,12.55
2022-10-18T19:01:46.413Z,10.80
2022-10-18T19:04:16.378Z,9.00
2022-10-18T19:06:50.204Z,8.43
2022-10-18T19:09:25.325Z,8.50
2022-10-18T19:12:09.500Z,8.60
2022-10-18T19:14:45.158Z,9.02
2022-10-18T19:17:20.316Z,8.63
2022-10-18T19:19:55.034Z,7.80
2022-10-18T19:22:27.643Z,7.80
2022-10-18T19:27:44.904Z,7.38
2022-10-18T19:30:14.482Z,7.15
2022-10-18T19:32:54.023Z,7.32
2022-10-18T19:35:22.678Z,7.35
2022-10-18T19:37:57.308Z,6.82
2022-10-18T19:42:59.195Z,6.50
2022-10-18T19:45:40.147Z,8.25
2022-10-18T19:48:17.942Z,9.43
2022-10-18T19:50:48.271Z,8.80
2022-10-18T19:53:25.374Z,7.97
2022-10-18T19:56:05.916Z,8.07
2022-10-18T19:58:49.507Z,7.32
2022-10-18T20:01:24.186Z,8.73
2022-10-18T20:03:52.785Z,8.07
2022-10-18T20:06:34.773Z,7.15
2022-10-18T20:09:02.885Z,7.40
2022-10-18T20:11:32.454Z,7.60
2022-10-18T20:14:11.832Z,7.07
2022-10-18T20:16:45.131Z,6.72
2022-10-18T20:19:18.130Z,7.70
2022-10-18T20:21:48.403Z,7.05
2022-10-18T20:24:18.038Z,7.47
2022-10-18T20:26:50.761Z,7.15
2022-10-18T20:29:19.132Z,7.63
2022-10-18T20:31:49.549Z,7.80
2022-10-18T20:34:18.288Z,8.07
2022-10-18T20:36:45.713Z,7.82
2022-10-18T20:39:18.135Z,7.18
2022-10-18T20:41:52.113Z,7.20
2022-10-18T20:44:36.202Z,7.45
2022-10-18T20:47:05.290Z,7.07
2022-10-18T20:49:38.003Z,7.05
2022-10-18T20:52:07.294Z,7.18
2022-10-18T20:54:44.423Z,7.13
2022-10-18T20:57:13.224Z,6.53
2022-10-18T21:02:23.899Z,7.72
2022-10-18T21:04:53.054Z,8.25
2022-10-18T21:07:20.317Z,7.43
2022-10-18T21:09:52.601Z,7.35
2022-10-18T21:15:03.322Z,6.82
2022-10-18T21:17:33.929Z,7.18
2022-10-18T21:20:09.978Z,6.78
2022-10-18T21:22:37.843Z,7.35
2022-10-18T21:25:06.968Z,7.90
2022-10-18T21:27:36.058Z,7.38
2022-10-18T21:30:25.184Z,7.90
2022-10-18T21:32:57.411Z,7.90
2022-10-18T21:35:30.593Z,7.65
2022-10-18T21:38:02.164Z,8.00
2022-10-18T21:40:30.011Z,7.03
2022-10-18T21:43:04.784Z,8.18
2022-10-18T21:45:33.982Z,7.32
2022-10-18T21:48:07.758Z,7.93
2022-10-18T21:50:37.072Z,8.13
2022-10-18T21:53:05.882Z,8.00
2022-10-18T21:55:39.021Z,7.40
2022-10-18T21:58:13.810Z,8.52
2022-10-18T22:00:50.171Z,7.88
2022-10-18T22:03:23.105Z,7.82
2022-10-18T22:06:17.202Z,8.15
2022-10-18T22:09:00.769Z,8.75
2022-10-18T22:11:41.925Z,7.90
2022-10-18T22:17:00.173Z,7.63
2022-10-18T22:19:53.058Z,7.70
2022-10-18T22:22:28.997Z,8.38
2022-10-18T22:24:59.459Z,7.68
2022-10-18T22:27:45.619Z,7.22
2022-10-18T22:30:20.914Z,8.55
2022-10-18T22:32:50.203Z,7.57
2022-10-18T22:35:18.837Z,8.70
2022-10-18T22:37:50.213Z,8.50
2022-10-18T22:40:18.589Z,9.00
2022-10-18T22:42:49.882Z,8.65
2022-10-18T22:45:32.412Z,8.05
2022-10-18T22:48:02.068Z,8.35
2022-10-18T22:50:30.302Z,8.75
2022-10-18T22:53:05.989Z,9.35
2022-10-18T22:55:51.291Z,8.35
2022-10-18T22:58:21.182Z,8.70
2022-10-18T23:00:50.026Z,8.77
2022-10-18T23:03:23.907Z,8.63
2022-10-18T23:05:55.798Z,8.27
2022-10-18T23:08:24.618Z,8.82
2022-10-18T23:10:56.153Z,8.75
2022-10-18T23:13:38.768Z,8.85
2022-10-18T23:16:07.953Z,8.60
2022-10-18T23:21:11.166Z,9.75
2022-10-18T23:23:58.225Z,8.68
2022-10-18T23:29:35.588Z,8.55
2022-10-18T23:32:06.727Z,9.98
2022-10-18T23:34:39.776Z,8.68
2022-10-18T23:37:09.271Z,8.67
2022-10-18T23:39:41.883Z,9.38
2022-10-18T23:42:14.877Z,9.50
2022-10-18T23:44:43.377Z,9.05
2022-10-18T23:47:18.904Z,9.43
2022-10-18T23:49:56.186Z,9.88
2022-10-18T23:52:24.067Z,10.77
2022-10-18T23:54:54.101Z,9.38
2022-10-18T23:57:25.933Z,9.13
2022-10-18T23:59:58.290Z,10.18
